Time;durP1;ratioP1;P1;durP2;ratioP2;P2;SDS_P1;SDS_P2;PMS_P1;PMS_P2;Temp;Humidity;BMP_temperature;BMP_pressure;BME280_temperature;BME280_humidity;BME280_pressure;Samples;Min_cycle;Max_cycle;Signal;HPM_P1;HPM_P2
2022/09/23 00:00:56;;;;;;;7.60;5.43;;;15.10;91.60;;;;;;5037611;28;20026;-91
2022/09/23 00:03:22;;;;;;;8.98;5.75;;;15.10;91.60;;;;;;5037872;28;20112;-91
2022/09/23 00:05:57;;;;;;;9.88;6.20;;;15.10;91.60;;;;;;5037366;28;20119;-91
2022/09/23 00:08:23;;;;;;;8.40;5.72;;;15.00;91.60;;;;;;5037181;28;20111;-91
2022/09/23 00:10:49;;;;;;;9.57;5.88;;;15.00;91.50;;;;;;5021123;28;20485;-91
2022/09/23 00:13:15;;;;;;;8.32;5.97;;;15.00;91.60;;;;;;5037312;28;20028;-91
2022/09/23 00:15:41;;;;;;;7.80;5.25;;;15.00;91.60;;;;;;5024279;28;20124;-91
2022/09/23 00:18:07;;;;;;;9.20;5.78;;;14.90;91.50;;;;;;5040326;28;20022;-91
2022/09/23 00:20:35;;;;;;;10.00;6.07;;;14.90;91.60;;;;;;5044627;28;20037;-91
2022/09/23 00:23:01;;;;;;;8.48;5.75;;;14.90;91.60;;;;;;5042028;28;20473;-91
2022/09/23 00:25:30;;;;;;;7.65;5.35;;;14.90;91.60;;;;;;5044003;28;20032;-91
2022/09/23 00:27:56;;;;;;;8.48;6.00;;;14.80;91.70;;;;;;5040328;28;20021;-91
2022/09/23 00:30:22;;;;;;;8.52;5.68;;;14.80;91.80;;;;;;5057325;28;20072;-91
2022/09/23 00:32:48;;;;;;;7.80;5.68;;;14.80;91.80;;;;;;5054732;28;20061;-91
2022/09/23 00:35:16;;;;;;;8.15;5.78;;;14.70;91.70;;;;;;5057883;28;20017;-91
2022/09/23 00:37:42;;;;;;;7.18;5.38;;;14.70;91.80;;;;;;5060403;28;20037;-90
2022/09/23 00:40:11;;;;;;;8.05;5.85;;;14.70;91.90;;;;;;5044670;28;20021;-89
2022/09/23 00:42:36;;;;;;;8.93;5.43;;;14.70;91.90;;;;;;5040364;28;20032;-91
2022/09/23 00:45:03;;;;;;;9.25;5.68;;;14.70;92.30;;;;;;5043498;28;20025;-91
2022/09/23 00:47:33;;;;;;;8.20;5.25;;;14.70;92.10;;;;;;5041622;28;20048;-91
2022/09/23 00:50:26;;;;;;;11.88;6.43;;;14.60;92.20;;;;;;5056670;28;20025;-90
2022/09/23 00:52:55;;;;;;;7.60;5.55;;;14.60;92.30;;;;;;5053243;28;20068;-91
2022/09/23 00:55:53;;;;;;;10.65;6.35;;;14.60;92.30;;;;;;5048996;28;20026;-92
2022/09/23 00:58:25;;;;;;;9.23;5.65;;;14.60;92.50;;;;;;5047498;28;20056;-91
2022/09/23 01:00:52;;;;;;;7.88;5.20;;;14.50;92.50;;;;;;5045339;28;20018;-91
2022/09/23 01:03:22;;;;;;;8.48;6.07;;;14.50;92.60;;;;;;5045164;28;20026;-91
2022/09/23 01:05:49;;;;;;;8.00;5.88;;;14.50;92.70;;;;;;5028889;28;20041;-92
2022/09/23 01:08:17;;;;;;;8.18;5.30;;;14.50;92.80;;;;;;5045101;28;20026;-92
2022/09/23 01:11:02;;;;;;;6.95;5.50;;;14.50;92.90;;;;;;5053392;28;20019;-91
2022/09/23 01:13:50;;;;;;;7.95;5.28;;;14.40;92.90;;;;;;5060192;28;20032;-90
2022/09/23 01:16:25;;;;;;;9.70;6.25;;;14.40;92.90;;;;;;5057786;28;20033;-90
2022/09/23 01:19:25;;;;;;;8.30;5.25;;;14.40;92.90;;;;;;5060770;28;20029;-91
2022/09/23 01:22:16;;;;;;;7.95;6.10;;;14.30;93.00;;;;;;5059176;28;20049;-91
2022/09/23 01:25:13;;;;;;;10.20;5.55;;;14.30;93.10;;;;;;5060240;28;20013;-91
2022/09/23 01:27:51;;;;;;;7.72;5.55;;;14.30;93.10;;;;;;5060181;28;20032;-90
2022/09/23 01:30:55;;;;;;;8.93;6.03;;;14.30;93.30;;;;;;5086359;22;20057;-92
2022/09/23 01:33:38;;;;;;;8.13;6.00;;;14.30;93.40;;;;;;5001030;28;20042;-92
2022/09/23 01:36:17;;;;;;;10.77;5.20;;;14.20;93.30;;;;;;5041895;28;20029;-92
2022/09/23 01:38:46;;;;;;;7.30;5.65;;;14.20;93.30;;;;;;5042380;28;20029;-92
2022/09/23 01:42:03;;;;;;;9.23;5.97;;;14.20;93.30;;;;;;5042349;28;20029;-91
2022/09/23 01:44:39;;;;;;;11.18;5.82;;;14.20;93.40;;;;;;4988511;28;20034;-92
2022/09/23 01:47:14;;;;;;;7.80;6.07;;;14.10;93.30;;;;;;5046941;28;20034;-91
2022/09/23 01:49:44;;;;;;;7.93;5.88;;;14.10;93.30;;;;;;5040432;28;20033;-92
2022/09/23 01:52:25;;;;;;;7.65;5.95;;;14.10;93.30;;;;;;5040371;28;20028;-92
2022/09/23 01:55:02;;;;;;;7.85;5.53;;;14.00;93.30;;;;;;5039933;28;20021;-91
2022/09/23 01:57:37;;;;;;;8.23;5.82;;;14.00;93.30;;;;;;5038071;28;20099;-92
2022/09/23 02:00:16;;;;;;;15.40;6.43;;;14.00;93.30;;;;;;5041076;28;20025;-92
2022/09/23 02:03:00;;;;;;;9.20;6.15;;;13.90;93.30;;;;;;5039162;28;20025;-91
2022/09/23 02:05:46;;;;;;;8.90;6.03;;;13.90;93.50;;;;;;5039691;28;20029;-91
2022/09/23 02:08:26;;;;;;;8.18;5.43;;;13.90;93.50;;;;;;5040350;28;20022;-91
2022/09/23 02:10:57;;;;;;;10.68;6.22;;;13.90;93.60;;;;;;5037854;28;20028;-92
2022/09/23 02:13:34;;;;;;;7.28;5.30;;;13.80;93.50;;;;;;5036715;28;20133;-92
2022/09/23 02:16:07;;;;;;;9.65;5.68;;;13.80;93.50;;;;;;5036965;28;20029;-92
2022/09/23 02:18:47;;;;;;;10.23;6.25;;;13.70;93.60;;;;;;5036932;28;20021;-92
2022/09/23 02:21:14;;;;;;;8.50;5.60;;;13.70;93.60;;;;;;5037252;28;20386;-91
2022/09/23 02:23:50;;;;;;;8.45;6.20;;;13.70;93.60;;;;;;5020074;28;20030;-92
2022/09/23 02:26:28;;;;;;;11.32;5.93;;;13.70;93.70;;;;;;5036390;28;20120;-92
2022/09/23 02:28:56;;;;;;;10.75;6.18;;;13.70;93.70;;;;;;5037479;28;20076;-91
2022/09/23 02:32:07;;;;;;;8.20;5.78;;;13.60;93.80;;;;;;5035872;28;20053;-92
2022/09/23 02:34:48;;;;;;;8.07;5.72;;;13.60;94.00;;;;;;5042102;28;20045;-92
2022/09/23 02:37:39;;;;;;;9.23;5.85;;;13.60;94.00;;;;;;5036780;28;20033;-92
2022/09/23 02:40:24;;;;;;;7.60;5.25;;;13.60;94.00;;;;;;5036421;28;20021;-91
2022/09/23 02:43:13;;;;;;;9.18;5.60;;;13.50;94.00;;;;;;5037450;28;20446;-92
2022/09/23 02:45:39;;;;;;;9.73;6.38;;;13.50;94.10;;;;;;5036330;28;20037;-91
2022/09/23 02:48:33;;;;;;;10.18;5.85;;;13.50;94.10;;;;;;5036378;28;20029;-92
2022/09/23 02:51:01;;;;;;;10.32;5.47;;;13.50;94.20;;;;;;5037663;28;20075;-91
2022/09/23 02:53:27;;;;;;;8.85;6.18;;;13.40;94.20;;;;;;5019634;28;20029;-91
2022/09/23 02:55:55;;;;;;;10.05;6.35;;;13.40;94.40;;;;;;5039728;28;20030;-91
2022/09/23 02:58:21;;;;;;;8.60;6.00;;;13.40;94.50;;;;;;5022756;28;20026;-89
2022/09/23 03:01:06;;;;;;;8.35;6.13;;;13.40;94.60;;;;;;5021333;28;20025;-92
2022/09/23 03:03:42;;;;;;;8.10;6.00;;;13.40;94.70;;;;;;5035964;28;20033;-91
2022/09/23 03:06:50;;;;;;;10.60;6.13;;;13.40;94.60;;;;;;5037291;28;20044;-91
2022/09/23 03:09:25;;;;;;;8.73;5.55;;;13.40;94.70;;;;;;5037291;28;20068;-92
2022/09/23 03:11:59;;;;;;;8.52;5.47;;;13.40;94.70;;;;;;5036648;28;20595;-91
2022/09/23 03:14:34;;;;;;;8.35;5.47;;;13.30;94.70;;;;;;5038772;28;20029;-91
2022/09/23 03:17:48;;;;;;;8.50;5.93;;;13.30;94.80;;;;;;5039062;28;20036;-91
2022/09/23 03:20:56;;;;;;;11.32;6.25;;;13.30;95.00;;;;;;5027438;28;20034;-91
2022/09/23 03:23:30;;;;;;;10.25;6.50;;;13.30;95.10;;;;;;5013096;28;20068;-90
2022/09/23 03:26:05;;;;;;;10.73;6.20;;;13.30;95.20;;;;;;5037045;28;20037;-91
2022/09/23 03:28:32;;;;;;;12.52;6.35;;;13.30;95.20;;;;;;5038388;28;20108;-91
2022/09/23 03:31:01;;;;;;;11.25;5.70;;;13.20;95.30;;;;;;5036491;28;20053;-91
2022/09/23 03:33:27;;;;;;;9.60;5.97;;;13.20;95.30;;;;;;5038216;28;20033;-91
2022/09/23 03:38:45;;;;;;;9.73;6.15;;;13.20;95.40;;;;;;5040461;28;20036;-90
2022/09/23 03:41:15;;;;;;;7.50;5.80;;;13.20;95.30;;;;;;5038324;28;20083;-90
2022/09/23 03:43:43;;;;;;;11.32;6.72;;;13.20;95.40;;;;;;5043708;28;20025;-91
2022/09/23 03:46:09;;;;;;;11.18;6.47;;;13.10;95.50;;;;;;5034746;28;20041;-90
2022/09/23 03:48:35;;;;;;;8.95;5.97;;;13.10;95.40;;;;;;5037537;28;20040;-90
2022/09/23 03:51:19;;;;;;;8.90;5.88;;;13.10;95.40;;;;;;5054449;28;20030;-90
2022/09/23 03:53:45;;;;;;;8.70;6.13;;;13.10;95.50;;;;;;5055507;28;20029;-90
2022/09/23 03:56:11;;;;;;;7.82;6.07;;;13.00;95.60;;;;;;5039120;28;20062;-90
2022/09/23 03:58:37;;;;;;;9.45;6.10;;;13.00;95.70;;;;;;5091672;23;20045;-92
2022/09/23 04:01:06;;;;;;;9.45;5.20;;;13.00;95.70;;;;;;5075964;28;20031;-91
2022/09/23 04:03:34;;;;;;;9.30;6.30;;;13.00;95.70;;;;;;5055291;28;20032;-91
2022/09/23 04:06:03;;;;;;;9.27;6.13;;;13.00;95.70;;;;;;5064226;28;20029;-91
2022/09/23 04:08:31;;;;;;;7.32;5.70;;;13.00;95.80;;;;;;5075369;28;20044;-90
2022/09/23 04:11:01;;;;;;;8.40;6.20;;;12.90;95.80;;;;;;5077406;28;20036;-91
2022/09/23 04:13:28;;;;;;;10.27;5.35;;;12.90;95.90;;;;;;5076642;28;20010;-91
2022/09/23 04:16:07;;;;;;;11.93;5.70;;;12.90;95.90;;;;;;5060567;28;20064;-90
2022/09/23 04:18:34;;;;;;;9.63;5.72;;;12.90;96.10;;;;;;5061322;28;20476;-88
2022/09/23 04:21:00;;;;;;;9.07;6.10;;;12.90;95.90;;;;;;5075849;28;20035;-90
2022/09/23 04:23:26;;;;;;;7.53;5.72;;;12.80;95.80;;;;;;5061336;28;20025;-91
2022/09/23 04:25:52;;;;;;;9.05;5.88;;;12.80;95.80;;;;;;5066980;28;20067;-92
2022/09/23 04:28:19;;;;;;;8.35;5.40;;;12.80;95.90;;;;;;5061154;28;20043;-91
2022/09/23 04:30:48;;;;;;;9.35;5.78;;;12.80;95.90;;;;;;5061361;28;20033;-91
2022/09/23 04:33:14;;;;;;;9.15;5.47;;;12.80;96.00;;;;;;5057354;28;20052;-91
2022/09/23 04:35:42;;;;;;;9.27;6.10;;;12.80;96.00;;;;;;5057632;28;20065;-91
2022/09/23 04:38:11;;;;;;;8.13;5.97;;;12.80;96.10;;;;;;5056750;28;20036;-91
2022/09/23 04:40:39;;;;;;;7.22;5.88;;;12.70;96.10;;;;;;5057688;28;20108;-91
2022/09/23 04:43:05;;;;;;;8.93;6.03;;;12.70;96.20;;;;;;5057050;28;20078;-92
2022/09/23 04:45:31;;;;;;;7.85;5.97;;;12.70;96.20;;;;;;5056636;28;20024;-92
2022/09/23 04:47:57;;;;;;;9.10;6.15;;;12.70;96.20;;;;;;5056166;28;20032;-91
2022/09/23 04:50:26;;;;;;;7.63;5.75;;;12.70;96.30;;;;;;5057635;28;20021;-90
2022/09/23 04:52:53;;;;;;;9.73;5.95;;;12.70;96.30;;;;;;5059957;28;20071;-91
2022/09/23 04:55:20;;;;;;;9.07;5.55;;;12.70;96.40;;;;;;5058282;28;20488;-91
2022/09/23 04:57:46;;;;;;;9.60;6.32;;;12.70;96.30;;;;;;5058946;28;20045;-89
2022/09/23 05:00:12;;;;;;;14.65;5.78;;;12.70;96.50;;;;;;5058778;28;20024;-92
2022/09/23 05:02:44;;;;;;;8.60;5.43;;;12.60;96.50;;;;;;5060147;28;20029;-92
2022/09/23 05:05:11;;;;;;;7.85;5.72;;;12.60;96.60;;;;;;5059135;28;20106;-93
2022/09/23 05:07:37;;;;;;;7.93;5.70;;;12.60;96.60;;;;;;5058076;28;20051;-92
2022/09/23 05:10:04;;;;;;;8.13;5.82;;;12.60;96.70;;;;;;5058218;28;20025;-91
2022/09/23 05:12:32;;;;;;;7.25;5.68;;;12.60;96.70;;;;;;5041378;28;20078;-92
2022/09/23 05:14:58;;;;;;;8.50;5.45;;;12.60;96.70;;;;;;5057802;28;20021;-91
2022/09/23 05:17:24;;;;;;;10.02;5.82;;;12.60;96.80;;;;;;5058333;28;20072;-92
2022/09/23 05:19:49;;;;;;;8.68;5.97;;;12.60;96.80;;;;;;5041276;28;20541;-92
2022/09/23 05:22:15;;;;;;;8.68;6.00;;;12.60;96.90;;;;;;5041800;28;20064;-91
2022/09/23 05:24:41;;;;;;;8.02;6.10;;;12.50;97.00;;;;;;5058032;28;20017;-91
2022/09/23 05:27:06;;;;;;;9.98;5.97;;;12.60;97.10;;;;;;5041095;28;20033;-92
2022/09/23 05:29:33;;;;;;;9.18;6.07;;;12.50;97.10;;;;;;5044575;28;20036;-91
2022/09/23 05:32:00;;;;;;;8.90;6.07;;;12.50;97.10;;;;;;5062024;28;20021;-92
2022/09/23 05:34:26;;;;;;;9.45;5.22;;;12.50;97.10;;;;;;5058124;28;20171;-91
2022/09/23 05:36:52;;;;;;;9.18;5.95;;;12.50;97.20;;;;;;5057784;28;20029;-91
2022/09/23 05:39:18;;;;;;;9.60;6.30;;;12.50;97.30;;;;;;5040644;28;20057;-91
2022/09/23 05:41:46;;;;;;;8.50;5.60;;;12.50;97.30;;;;;;5058155;28;20081;-91
2022/09/23 05:44:12;;;;;;;7.63;5.75;;;12.50;97.40;;;;;;5057811;28;20028;-91
2022/09/23 05:46:37;;;;;;;8.38;5.50;;;12.50;97.40;;;;;;5057456;28;20548;-91
2022/09/23 05:49:06;;;;;;;10.27;6.63;;;12.50;97.40;;;;;;5057186;28;20115;-91
2022/09/23 05:51:36;;;;;;;8.95;5.50;;;12.50;97.50;;;;;;5058136;28;20044;-92
2022/09/23 05:54:04;;;;;;;9.80;5.93;;;12.50;97.60;;;;;;5057144;28;20116;-92
2022/09/23 05:56:38;;;;;;;9.70;5.80;;;12.50;97.70;;;;;;5056976;28;20028;-92
2022/09/23 05:59:05;;;;;;;8.77;6.28;;;12.50;97.70;;;;;;5058816;28;20049;-91
2022/09/23 06:01:34;;;;;;;9.75;6.40;;;12.50;97.80;;;;;;5059477;28;20028;-91
2022/09/23 06:04:04;;;;;;;8.68;6.30;;;12.50;97.90;;;;;;5059090;28;20104;-91
2022/09/23 06:06:33;;;;;;;8.80;6.13;;;12.50;97.90;;;;;;5056781;28;20050;-91
2022/09/23 06:09:00;;;;;;;6.65;5.15;;;12.50;98.00;;;;;;5059502;28;20092;-91
2022/09/23 06:11:29;;;;;;;8.27;5.25;;;12.50;98.10;;;;;;5057314;28;20027;-91
2022/09/23 06:13:59;;;;;;;7.30;5.15;;;12.50;98.10;;;;;;5059070;28;20473;-91
2022/09/23 06:16:25;;;;;;;7.32;6.05;;;12.50;98.10;;;;;;5059222;28;20464;-91
2022/09/23 06:18:51;;;;;;;8.23;5.60;;;12.50;98.20;;;;;;5056193;28;20418;-91
2022/09/23 06:21:17;;;;;;;6.95;5.60;;;12.50;98.20;;;;;;5057100;28;20025;-91
2022/09/23 06:23:44;;;;;;;8.80;5.90;;;12.50;98.30;;;;;;5055846;28;20017;-91
2022/09/23 06:26:12;;;;;;;10.18;5.68;;;12.50;98.40;;;;;;5055794;28;20032;-91
2022/09/23 06:28:39;;;;;;;9.18;5.43;;;12.50;98.50;;;;;;5056027;28;20044;-91
2022/09/23 06:31:16;;;;;;;8.93;5.25;;;12.50;98.50;;;;;;5039763;28;20033;-91
2022/09/23 06:33:45;;;;;;;11.40;5.63;;;12.50;98.50;;;;;;5056227;28;20025;-91
2022/09/23 06:36:12;;;;;;;10.15;5.93;;;12.50;98.50;;;;;;5056220;28;20064;-91
2022/09/23 06:38:48;;;;;;;9.90;5.82;;;12.60;98.60;;;;;;5056265;28;20029;-91
2022/09/23 06:41:15;;;;;;;7.28;5.70;;;12.60;98.70;;;;;;5055996;28;20024;-91
2022/09/23 06:43:41;;;;;;;11.27;5.22;;;12.60;98.70;;;;;;5040092;28;20110;-91
2022/09/23 06:46:10;;;;;;;10.10;5.07;;;12.50;98.70;;;;;;5055363;28;20028;-91
2022/09/23 06:48:35;;;;;;;8.13;5.32;;;12.60;98.70;;;;;;5056043;28;20484;-91
2022/09/23 06:51:03;;;;;;;7.03;5.55;;;12.60;99.00;;;;;;5056817;28;20036;-91
2022/09/23 06:53:33;;;;;;;8.57;5.85;;;12.60;98.80;;;;;;5056583;28;20480;-91
2022/09/23 06:56:02;;;;;;;11.70;5.47;;;12.60;98.80;;;;;;5055866;28;20107;-90
2022/09/23 06:58:28;;;;;;;8.73;5.60;;;12.60;98.80;;;;;;5055770;28;20069;-91
2022/09/23 07:01:04;;;;;;;11.93;5.38;;;12.60;98.90;;;;;;5055801;28;20465;-91
2022/09/23 07:03:30;;;;;;;10.57;6.13;;;12.60;98.90;;;;;;5056430;28;20048;-91
2022/09/23 07:05:59;;;;;;;9.73;5.68;;;12.60;99.00;;;;;;5056098;28;20025;-91
2022/09/23 07:08:26;;;;;;;8.50;5.43;;;12.70;99.00;;;;;;5056415;28;20055;-91
2022/09/23 07:10:59;;;;;;;8.98;5.15;;;12.60;99.00;;;;;;5060075;28;20028;-91
2022/09/23 07:13:31;;;;;;;8.27;5.93;;;12.70;99.00;;;;;;5057958;28;20021;-91
2022/09/23 07:15:57;;;;;;;10.02;5.55;;;12.70;99.00;;;;;;5057385;28;20025;-91
2022/09/23 07:18:24;;;;;;;11.07;5.60;;;12.70;99.10;;;;;;5057825;28;20039;-90
2022/09/23 07:21:03;;;;;;;11.45;5.43;;;12.70;99.10;;;;;;5055914;28;20505;-91
2022/09/23 07:23:29;;;;;;;9.82;5.47;;;12.70;99.10;;;;;;5060847;28;20460;-90
2022/09/23 07:25:57;;;;;;;8.75;5.57;;;12.70;99.10;;;;;;5059389;28;20028;-91
2022/09/23 07:28:23;;;;;;;9.82;6.45;;;12.80;99.10;;;;;;5056713;28;20029;-91
2022/09/23 07:30:49;;;;;;;9.80;5.32;;;12.80;99.10;;;;;;5054826;28;20457;-91
2022/09/23 07:33:15;;;;;;;12.07;6.05;;;12.80;99.10;;;;;;5038704;28;20449;-91
2022/09/23 07:35:41;;;;;;;7.75;5.45;;;12.80;99.10;;;;;;5056617;28;20021;-90
2022/09/23 07:38:09;;;;;;;8.30;5.22;;;12.80;99.10;;;;;;5044999;28;20025;-91
2022/09/23 07:40:35;;;;;;;7.78;5.53;;;12.80;99.10;;;;;;5059056;28;20060;-91
2022/09/23 07:43:03;;;;;;;9.90;5.13;;;12.80;99.10;;;;;;5055291;28;20021;-91
2022/09/23 07:45:32;;;;;;;8.15;5.45;;;12.90;99.20;;;;;;5038048;28;20461;-91
2022/09/23 07:48:01;;;;;;;10.05;5.90;;;12.90;99.20;;;;;;5054004;28;20029;-90
2022/09/23 07:50:31;;;;;;;10.55;5.68;;;12.90;99.20;;;;;;5054146;28;20029;-91
2022/09/23 07:52:56;;;;;;;6.57;4.82;;;12.90;99.20;;;;;;5054014;28;20378;-91
2022/09/23 07:55:22;;;;;;;7.20;5.45;;;12.90;99.20;;;;;;5054140;28;20199;-91
2022/09/23 07:57:48;;;;;;;8.07;5.22;;;12.90;99.20;;;;;;5054527;28;20453;-91
2022/09/23 08:00:14;;;;;;;7.97;4.85;;;12.90;99.20;;;;;;5054300;28;20075;-91
2022/09/23 08:02:40;;;;;;;8.07;4.97;;;12.90;99.30;;;;;;5054688;28;20024;-91
2022/09/23 08:05:08;;;;;;;8.90;5.20;;;12.90;99.30;;;;;;5054843;28;20040;-92
2022/09/23 08:07:37;;;;;;;7.88;5.05;;;13.00;99.40;;;;;;5039064;28;20082;-91
2022/09/23 08:10:02;;;;;;;9.02;5.15;;;13.00;99.40;;;;;;5055072;28;20025;-91
2022/09/23 08:12:31;;;;;;;7.40;5.30;;;13.00;99.40;;;;;;5054106;28;20028;-92
2022/09/23 08:14:58;;;;;;;7.68;5.10;;;13.00;99.50;;;;;;5053594;28;20025;-91
2022/09/23 08:17:24;;;;;;;6.60;5.45;;;13.10;99.50;;;;;;5054818;28;20029;-91
2022/09/23 08:19:50;;;;;;;10.10;5.28;;;13.10;99.50;;;;;;5055287;28;20047;-92
2022/09/23 08:22:18;;;;;;;7.78;5.63;;;13.10;99.50;;;;;;5054257;28;20029;-90
2022/09/23 08:24:44;;;;;;;7.25;5.22;;;13.10;99.50;;;;;;5055556;28;20032;-91
2022/09/23 08:27:13;;;;;;;9.70;5.43;;;13.10;99.50;;;;;;5053971;28;20029;-91
2022/09/23 08:29:39;;;;;;;7.10;5.47;;;13.20;99.60;;;;;;5054074;28;20116;-91
2022/09/23 08:32:08;;;;;;;8.38;5.20;;;13.20;99.60;;;;;;5053669;28;20052;-92
2022/09/23 08:34:34;;;;;;;7.93;5.60;;;13.20;99.60;;;;;;5055954;28;20033;-91
2022/09/23 08:37:03;;;;;;;9.07;6.22;;;13.20;99.60;;;;;;5042143;28;20039;-91
2022/09/23 08:39:31;;;;;;;9.60;5.50;;;13.30;99.70;;;;;;5041740;28;20037;-91
2022/09/23 08:42:12;;;;;;;8.88;5.70;;;13.30;99.80;;;;;;5058374;28;20103;-92
2022/09/23 08:44:52;;;;;;;9.30;5.15;;;13.30;99.70;;;;;;5057827;28;20526;-92
2022/09/23 08:47:42;;;;;;;7.43;5.43;;;13.40;99.80;;;;;;5058261;28;20025;-91
2022/09/23 08:50:17;;;;;;;7.63;5.43;;;13.50;99.80;;;;;;5038621;28;20040;-90
2022/09/23 08:53:02;;;;;;;10.77;5.85;;;13.40;99.80;;;;;;5057812;28;20116;-92
2022/09/23 08:55:44;;;;;;;12.43;6.00;;;13.50;99.80;;;;;;5057622;28;20115;-91
2022/09/23 08:58:34;;;;;;;9.35;5.60;;;13.50;99.80;;;;;;5056905;28;20087;-92
2022/09/23 09:01:37;;;;;;;9.82;6.63;;;13.50;99.90;;;;;;5057565;28;20025;-91
2022/09/23 09:04:22;;;;;;;10.35;6.40;;;13.60;99.90;;;;;;5056580;28;20082;-92
2022/09/23 09:07:06;;;;;;;11.95;5.85;;;13.70;99.90;;;;;;5057423;28;20029;-92
2022/09/23 09:09:56;;;;;;;10.45;5.88;;;13.70;99.90;;;;;;5057595;28;20402;-91
2022/09/23 09:12:50;;;;;;;9.25;5.65;;;13.80;99.90;;;;;;5057532;28;20023;-92
2022/09/23 09:15:26;;;;;;;9.35;5.93;;;13.80;99.90;;;;;;5057281;28;20057;-92
2022/09/23 09:18:08;;;;;;;9.93;6.80;;;13.90;99.90;;;;;;5058937;28;20025;-91
2022/09/23 09:20:38;;;;;;;7.97;5.50;;;13.90;99.90;;;;;;5058950;28;20035;-92
2022/09/23 09:23:10;;;;;;;8.57;5.32;;;14.00;99.90;;;;;;5057782;28;20078;-88
2022/09/23 09:25:44;;;;;;;9.98;6.28;;;14.00;99.90;;;;;;5058213;28;20037;-91
2022/09/23 09:28:34;;;;;;;8.02;5.60;;;14.10;99.90;;;;;;5057036;28;20033;-92
2022/09/23 09:31:20;;;;;;;8.47;5.43;;;14.10;99.90;;;;;;5057266;28;20118;-91
2022/09/23 09:34:15;;;;;;;11.15;6.97;;;14.20;99.90;;;;;;5057469;28;20021;-90
2022/09/23 09:37:04;;;;;;;7.60;5.70;;;14.20;99.50;;;;;;5057709;28;20082;-92
2022/09/23 09:39:29;;;;;;;9.70;6.53;;;14.30;99.40;;;;;;5057679;28;20054;-91
2022/09/23 09:41:58;;;;;;;8.20;5.22;;;14.40;99.40;;;;;;5059013;28;20548;-91
2022/09/23 09:44:49;;;;;;;9.38;6.50;;;14.40;99.30;;;;;;5040992;28;20036;-92
2022/09/23 09:47:18;;;;;;;;;;;14.50;99.20;;;;;;5058394;28;20071;-91
2022/09/23 09:50:00;;;;;;;9.82;5.32;;;14.50;99.10;;;;;;5057640;28;20362;-91
2022/09/23 09:52:30;;;;;;;9.65;5.40;;;14.60;98.90;;;;;;5057313;28;20029;-91
2022/09/23 09:55:24;;;;;;;11.48;6.13;;;14.60;98.60;;;;;;5057243;28;20116;-90
2022/09/23 09:57:56;;;;;;;8.45;5.15;;;14.70;98.60;;;;;;5052646;28;20497;-91
2022/09/23 10:00:25;;;;;;;7.13;5.40;;;14.70;98.50;;;;;;5057271;28;20131;-92
2022/09/23 10:03:12;;;;;;;11.50;5.60;;;14.80;98.40;;;;;;5057094;28;20021;-92
2022/09/23 10:05:44;;;;;;;10.00;5.95;;;14.90;98.20;;;;;;5057010;28;20048;-92
2022/09/23 10:08:28;;;;;;;8.65;5.30;;;14.90;98.10;;;;;;5057706;28;20102;-88
2022/09/23 10:11:08;;;;;;;9.07;5.22;;;15.00;98.00;;;;;;5057617;28;20028;-92
2022/09/23 10:13:34;;;;;;;8.20;4.90;;;15.00;97.70;;;;;;5056500;28;20468;-92
2022/09/23 10:16:02;;;;;;;6.93;4.72;;;15.10;97.60;;;;;;5039949;28;20044;-92
2022/09/23 10:18:49;;;;;;;8.52;5.68;;;15.10;97.50;;;;;;5056392;28;20392;-92
2022/09/23 10:21:19;;;;;;;10.93;5.80;;;15.20;97.60;;;;;;5056374;28;20055;-92
2022/09/23 10:23:51;;;;;;;7.43;5.43;;;15.20;97.40;;;;;;5057686;28;20036;-92
2022/09/23 10:26:31;;;;;;;8.82;5.85;;;15.30;97.60;;;;;;5055646;28;20035;-92
2022/09/23 10:29:00;;;;;;;15.05;5.07;;;15.40;97.20;;;;;;5039673;28;20040;-92
2022/09/23 10:31:34;;;;;;;8.32;6.10;;;15.40;97.20;;;;;;5040041;28;20029;-91
2022/09/23 10:34:28;;;;;;;12.35;6.60;;;15.50;97.00;;;;;;5056471;28;20036;-92
2022/09/23 10:37:02;;;;;;;8.13;4.75;;;15.50;96.50;;;;;;5058239;28;20028;-92
2022/09/23 10:48:24;;;;;;;9.98;5.15;;;15.80;96.20;;;;;;5057731;28;20091;-92
2022/09/23 10:50:52;;;;;;;9.55;4.72;;;15.90;96.20;;;;;;5058027;28;20029;-91
2022/09/23 10:53:30;;;;;;;9.60;4.60;;;15.90;96.10;;;;;;5057473;28;20032;-92
2022/09/23 10:56:20;;;;;;;9.02;4.97;;;15.90;96.20;;;;;;5060385;28;20029;-92
2022/09/23 10:59:06;;;;;;;7.85;5.35;;;16.00;96.10;;;;;;5059075;28;20052;-92
2022/09/23 11:02:03;;;;;;;8.60;5.15;;;16.10;95.70;;;;;;5055059;28;20029;-92
2022/09/23 11:05:06;;;;;;;8.10;4.78;;;16.10;95.70;;;;;;5056113;28;20025;-92
2022/09/23 11:07:44;;;;;;;9.07;5.10;;;16.20;95.30;;;;;;5034831;28;20041;-92
2022/09/23 11:10:19;;;;;;;11.52;5.80;;;16.30;95.10;;;;;;5055812;28;20091;-92
2022/09/23 11:13:13;;;;;;;6.20;4.78;;;16.30;95.10;;;;;;5057089;28;20064;-91
2022/09/23 11:16:07;;;;;;;9.27;5.32;;;16.40;95.20;;;;;;5055182;28;20075;-91
2022/09/23 11:18:41;;;;;;;7.50;5.03;;;16.40;95.00;;;;;;5055324;28;20025;-92
2022/09/23 11:21:37;;;;;;;7.18;4.78;;;16.50;94.90;;;;;;5056277;28;20023;-92
2022/09/23 11:24:49;;;;;;;7.35;5.25;;;16.50;94.70;;;;;;5055297;28;20021;-93
2022/09/23 11:27:17;;;;;;;;;;;16.60;94.50;;;;;;5054751;28;20033;-93
2022/09/23 11:29:46;;;;;;;6.95;4.80;;;16.60;94.50;;;;;;5055355;28;19958;-91
2022/09/23 11:32:52;;;;;;;8.68;5.03;;;16.60;94.50;;;;;;5056269;28;20102;-91
2022/09/23 11:35:24;;;;;;;8.25;5.10;;;16.70;94.10;;;;;;5040535;28;20466;-91
2022/09/23 11:38:00;;;;;;;7.93;4.97;;;16.70;94.00;;;;;;5054963;28;20025;-91
2022/09/23 11:40:36;;;;;;;9.30;5.25;;;16.80;94.00;;;;;;5055345;28;20025;-92
2022/09/23 11:43:23;;;;;;;9.82;5.40;;;16.80;94.00;;;;;;5056471;28;20457;-92
2022/09/23 11:45:56;;;;;;;8.60;5.28;;;16.90;93.60;;;;;;5054713;28;20025;-92
2022/09/23 11:48:42;;;;;;;6.57;4.63;;;16.90;93.30;;;;;;5055120;28;20476;-92
2022/09/23 11:51:17;;;;;;;7.63;5.10;;;17.00;93.40;;;;;;5055294;28;20017;-92
2022/09/23 11:54:04;;;;;;;9.27;5.13;;;17.00;93.40;;;;;;5054282;28;20036;-91
2022/09/23 11:56:38;;;;;;;8.27;4.65;;;17.00;93.50;;;;;;5055240;28;20101;-92
2022/09/23 11:59:40;;;;;;;7.85;5.53;;;17.10;93.40;;;;;;5055818;28;20072;-92
2022/09/23 12:02:19;;;;;;;8.77;5.00;;;17.10;93.30;;;;;;5054904;28;20074;-92
2022/09/23 12:04:56;;;;;;;8.15;5.25;;;17.20;93.30;;;;;;5055408;28;20090;-92
2022/09/23 12:07:38;;;;;;;10.95;6.00;;;17.20;93.30;;;;;;5054765;28;20063;-90
2022/09/23 12:10:10;;;;;;;9.38;5.53;;;17.30;93.40;;;;;;5054059;28;20393;-92
2022/09/23 12:13:18;;;;;;;8.75;5.45;;;17.30;93.40;;;;;;5054240;28;20021;-92
2022/09/23 12:15:58;;;;;;;11.27;5.60;;;17.40;93.60;;;;;;5034772;28;20044;-92
2022/09/23 12:18:46;;;;;;;12.50;6.72;;;17.40;93.40;;;;;;5056618;28;20036;-91
2022/09/23 12:21:28;;;;;;;14.50;7.15;;;17.50;93.00;;;;;;5054974;28;20408;-92
2022/09/23 12:24:20;;;;;;;9.48;6.13;;;17.50;92.50;;;;;;5055070;28;20116;-91
2022/09/23 12:26:52;;;;;;;12.00;6.75;;;17.50;92.50;;;;;;5055409;28;20057;-92
2022/09/23 12:29:18;;;;;;;11.48;6.80;;;17.50;92.60;;;;;;5054727;28;20602;-92
2022/09/23 12:31:45;;;;;;;13.10;6.28;;;17.60;92.70;;;;;;5054154;28;20030;-92
2022/09/23 12:34:42;;;;;;;9.75;6.38;;;17.60;92.50;;;;;;5054596;28;20083;-92
2022/09/23 12:37:08;;;;;;;12.30;6.28;;;17.70;92.60;;;;;;5053650;28;20552;-92
2022/09/23 12:39:39;;;;;;;13.30;6.88;;;17.70;92.50;;;;;;5056414;28;20067;-91
2022/09/23 12:42:22;;;;;;;12.98;6.30;;;17.80;92.40;;;;;;5055091;28;20025;-92
2022/09/23 12:44:52;;;;;;;8.07;5.32;;;17.90;92.40;;;;;;5054946;28;20595;-91
2022/09/23 12:47:24;;;;;;;10.15;6.13;;;17.90;92.20;;;;;;5055948;28;20039;-92
2022/09/23 12:49:52;;;;;;;11.25;6.13;;;17.90;91.90;;;;;;5054224;28;20025;-92
2022/09/23 12:52:17;;;;;;;9.23;5.65;;;17.90;91.50;;;;;;5054878;28;20017;-92
2022/09/23 12:54:49;;;;;;;9.13;5.60;;;18.00;91.50;;;;;;5054011;28;20552;-91
2022/09/23 12:57:32;;;;;;;8.40;4.88;;;18.00;91.10;;;;;;5054148;28;20036;-92
2022/09/23 13:00:12;;;;;;;9.77;6.20;;;18.00;90.80;;;;;;5055037;28;20056;-91
2022/09/23 13:02:45;;;;;;;7.95;5.15;;;18.10;90.80;;;;;;5054473;28;20065;-92
2022/09/23 13:08:23;;;;;;;11.02;6.22;;;18.10;90.30;;;;;;5055906;28;20048;-92
2022/09/23 13:11:09;;;;;;;11.43;5.90;;;18.10;90.40;;;;;;5053878;28;20029;-92
2022/09/23 13:13:38;;;;;;;9.88;5.80;;;18.10;90.40;;;;;;5033008;28;20033;-92
2022/09/23 13:16:34;;;;;;;10.13;5.82;;;18.20;90.30;;;;;;5053926;28;20033;-93
2022/09/23 13:19:04;;;;;;;9.57;6.07;;;18.20;90.40;;;;;;5054524;28;20021;-92
2022/09/23 13:21:45;;;;;;;8.30;5.00;;;18.20;90.20;;;;;;5056156;28;20021;-89
2022/09/23 13:24:31;;;;;;;;;;;18.20;90.30;;;;;;5059265;28;20063;-92
2022/09/23 13:27:05;;;;;;;7.47;4.40;;;18.30;88.90;;;;;;5059403;28;19977;-93
2022/09/23 13:29:39;;;;;;;8.43;5.22;;;18.30;89.30;;;;;;5058326;28;20029;-92
2022/09/23 13:32:17;;;;;;;10.23;5.50;;;18.30;88.70;;;;;;5059748;28;20025;-92
2022/09/23 13:34:54;;;;;;;7.53;5.35;;;18.30;88.90;;;;;;5057961;28;20013;-92
2022/09/23 13:37:26;;;;;;;9.75;4.80;;;18.40;88.80;;;;;;5058351;28;20036;-92